Time;durP1;ratioP1;P1;durP2;ratioP2;P2;SDS_P1;SDS_P2;PMS_P1;PMS_P2;Temp;Humidity;BMP_temperature;BMP_pressure;BME280_temperature;BME280_humidity;BME280_pressure;Samples;Min_cycle;Max_cycle;Signal;HPM_P1;HPM_P2
2023/08/24 00:01:11;;;;;;;7.6;6.1;;;;;;;22.82;81.1377;940.9433;;;;
2023/08/24 00:03:42;;;;;;;8.6;5.9;;;;;;;22.81;81.21777;940.9345;;;;
2023/08/24 00:06:08;;;;;;;7.3;5.9;;;;;;;22.78;81.35254;940.9436;;;;
2023/08/24 00:08:34;;;;;;;8.3;5.9;;;;;;;22.83;81.00977;940.9312;;;;
2023/08/24 00:11:00;;;;;;;7.6;5.8;;;;;;;22.84;81.0332;940.9041;;;;
2023/08/24 00:13:27;;;;;;;8.6;5.7;;;;;;;22.92;80.54297;940.8811;;;;
2023/08/24 00:15:52;;;;;;;8.4;5.9;;;;;;;22.94;80.37207;940.9186;;;;
2023/08/24 00:18:21;;;;;;;8.5;5.8;;;;;;;22.95;80.23145;940.9736;;;;
2023/08/24 00:20:43;;;;;;;7.5;6.3;;;;;;;22.84;80.62402;940.8934;;;;
2023/08/24 00:23:09;;;;;;;6.7;5.9;;;;;;;22.81;80.74805;940.8777;;;;
2023/08/24 00:25:34;;;;;;;7.6;5.7;;;;;;;22.78;80.71973;940.8931;;;;
2023/08/24 00:28:00;;;;;;;8.6;5.8;;;;;;;22.84;80.2002;940.8677;;;;
2023/08/24 00:30:25;;;;;;;6.3;5.5;;;;;;;22.54;80.96875;940.8214;;;;
2023/08/24 00:32:50;;;;;;;7.9;6.3;;;;;;;22.56;81.34668;940.8144;;;;
2023/08/24 00:35:17;;;;;;;6.7;5.9;;;;;;;22.44;81.83105;940.7839;;;;
2023/08/24 00:37:42;;;;;;;7.3;5.9;;;;;;;22.5;81.29102;940.7861;;;;
2023/08/24 00:40:13;;;;;;;6.9;6.2;;;;;;;22.5;81.08008;940.791;;;;
2023/08/24 00:42:43;;;;;;;6.9;5.7;;;;;;;22.51;81.08008;940.7885;;;;
2023/08/24 00:45:09;;;;;;;7;5.6;;;;;;;22.45;81.41016;940.7197;;;;
2023/08/24 00:47:33;;;;;;;8;5.5;;;;;;;22.52;81.23535;940.7351;;;;
2023/08/24 00:50:00;;;;;;;8.2;5.7;;;;;;;22.52;80.89551;940.7198;;;;
2023/08/24 00:52:26;;;;;;;10.6;6.7;;;;;;;22.47;81.21387;940.6702;;;;
2023/08/24 00:54:51;;;;;;;19.8;12.1;;;;;;;22.39;81.30469;940.6531;;;;
2023/08/24 00:57:17;;;;;;;9.9;7.3;;;;;;;22.32;81.78418;940.6586;;;;
2023/08/24 00:59:42;;;;;;;8.5;7.2;;;;;;;22.3;81.92188;940.6153;;;;
2023/08/24 01:02:07;;;;;;;8.4;6.1;;;;;;;22.29;81.76953;940.6724;;;;
2023/08/24 01:04:36;;;;;;;6.8;5.5;;;;;;;22.23;81.92188;940.6598;;;;
2023/08/24 01:07:01;;;;;;;10.9;6;;;;;;;22.07;82.78223;940.6897;;;;
2023/08/24 01:09:27;;;;;;;8.5;5.5;;;;;;;22.09;82.65723;940.6973;;;;
2023/08/24 01:11:53;;;;;;;8.9;6;;;;;;;22.13;82.57031;940.6652;;;;
2023/08/24 01:14:18;;;;;;;6.1;5.5;;;;;;;22.19;82.24023;940.657;;;;
2023/08/24 01:16:43;;;;;;;11.5;5.8;;;;;;;22.15;82.32715;940.6629;;;;
2023/08/24 01:19:08;;;;;;;6.7;6;;;;;;;22;82.9082;940.5916;;;;
2023/08/24 01:21:33;;;;;;;8;5.7;;;;;;;21.94;83.05078;940.6707;;;;
2023/08/24 01:23:58;;;;;;;8;6.6;;;;;;;21.89;83.06543;940.5966;;;;
2023/08/24 01:26:23;;;;;;;7.6;6;;;;;;;21.88;83.27246;940.6277;;;;
2023/08/24 01:28:48;;;;;;;8.4;5.8;;;;;;;21.89;83.04004;940.5894;;;;
2023/08/24 01:31:14;;;;;;;6.5;5.7;;;;;;;21.82;83.21582;940.554;;;;
2023/08/24 01:33:41;;;;;;;8.3;5.8;;;;;;;21.68;83.75098;940.6431;;;;
2023/08/24 01:36:06;;;;;;;6.9;5.3;;;;;;;21.79;83.17578;940.6456;;;;
2023/08/24 01:38:36;;;;;;;7.5;5.9;;;;;;;21.93;82.32227;940.6627;;;;
2023/08/24 01:41:02;;;;;;;7.7;5.9;;;;;;;21.83;83.1709;940.6381;;;;
2023/08/24 01:43:28;;;;;;;7.2;6.5;;;;;;;21.79;83.65625;940.5717;;;;
2023/08/24 01:45:53;;;;;;;6.6;5.8;;;;;;;21.79;83.6543;940.5962;;;;
2023/08/24 01:48:18;;;;;;;9.8;5.9;;;;;;;21.77;83.47461;940.6163;;;;
2023/08/24 01:50:44;;;;;;;8.5;6.4;;;;;;;21.66;83.85449;940.6639;;;;
2023/08/24 01:53:09;;;;;;;8.9;5.9;;;;;;;21.67;83.93652;940.6295;;;;
2023/08/24 01:55:43;;;;;;;8.3;6.7;;;;;;;21.65;83.99023;940.5898;;;;
2023/08/24 01:58:04;;;;;;;8.4;6.5;;;;;;;21.52;84.59863;940.5933;;;;
2023/08/24 02:00:29;;;;;;;6.2;5.6;;;;;;;21.62;83.9043;940.4038;;;;
2023/08/24 02:02:58;;;;;;;7.3;6.2;;;;;;;21.65;83.37305;940.4656;;;;
2023/08/24 02:05:27;;;;;;;7.9;6.6;;;;;;;21.56;83.55273;940.5054;;;;
2023/08/24 02:07:48;;;;;;;9.4;6.3;;;;;;;21.54;83.51465;940.449;;;;
2023/08/24 02:10:20;;;;;;;9.2;6.3;;;;;;;21.67;83.25684;940.4595;;;;
2023/08/24 02:12:45;;;;;;;8.1;6.2;;;;;;;21.77;82.5498;940.4347;;;;
2023/08/24 02:15:15;;;;;;;11.1;6.3;;;;;;;21.7;83.13379;940.397;;;;
2023/08/24 02:17:45;;;;;;;7.5;5.9;;;;;;;21.64;83.56836;940.4448;;;;
2023/08/24 02:20:11;;;;;;;8;5.6;;;;;;;21.63;83.73242;940.3722;;;;
2023/08/24 02:22:39;;;;;;;7.5;5.8;;;;;;;21.67;83.44629;940.3806;;;;
2023/08/24 02:25:04;;;;;;;9.2;5.7;;;;;;;21.64;83.41602;940.367;;;;
2023/08/24 02:27:32;;;;;;;7.5;5.8;;;;;;;21.61;84.33398;940.2827;;;;
2023/08/24 02:29:57;;;;;;;10.9;6;;;;;;;21.41;85.71289;940.2939;;;;
2023/08/24 02:32:25;;;;;;;10.7;6.4;;;;;;;21.47;85.67871;940.2681;;;;
2023/08/24 02:34:51;;;;;;;7.6;5.9;;;;;;;21.56;85.16895;940.2606;;;;
2023/08/24 02:37:17;;;;;;;8.7;6.5;;;;;;;21.67;84.01855;940.3248;;;;
2023/08/24 02:39:42;;;;;;;7.7;5.9;;;;;;;21.66;83.77051;940.3195;;;;
2023/08/24 02:42:08;;;;;;;8.3;6.4;;;;;;;21.61;83.54004;940.2777;;;;
2023/08/24 02:44:34;;;;;;;6.9;6.1;;;;;;;21.44;84.14941;940.2261;;;;
2023/08/24 02:46:59;;;;;;;10.7;7.5;;;;;;;21.35;84.40332;940.3167;;;;
2023/08/24 02:49:24;;;;;;;11;7;;;;;;;21.19;85.10938;940.2428;;;;
2023/08/24 02:51:53;;;;;;;8.4;6.8;;;;;;;20.85;86.75;940.2964;;;;
2023/08/24 02:54:19;;;;;;;8.4;6;;;;;;;20.89;86.54883;940.2583;;;;
2023/08/24 02:56:44;;;;;;;10.9;6.9;;;;;;;20.66;88.00977;940.2414;;;;
2023/08/24 02:59:09;;;;;;;8.3;6.1;;;;;;;20.36;89.5293;940.2012;;;;
2023/08/24 03:01:38;;;;;;;8.4;6.4;;;;;;;20.46;88.94141;940.1735;;;;
2023/08/24 03:03:59;;;;;;;9.9;6.3;;;;;;;20.49;88.91211;940.1387;;;;
2023/08/24 03:06:26;;;;;;;9.1;6.1;;;;;;;20.65;87.68262;940.1719;;;;
2023/08/24 03:08:51;;;;;;;9;6;;;;;;;20.35;89;940.2079;;;;
2023/08/24 03:11:17;;;;;;;8.5;5.9;;;;;;;20.54;88.38574;940.1705;;;;
2023/08/24 03:13:44;;;;;;;8.6;6.7;;;;;;;20.69;87.57324;940.1224;;;;
2023/08/24 03:16:11;;;;;;;94.7;51.4;;;;;;;20.88;86.27637;940.1558;;;;
2023/08/24 03:18:36;;;;;;;45.3;25.2;;;;;;;20.77;86.93262;940.1528;;;;
2023/08/24 03:21:02;;;;;;;9.1;6;;;;;;;20.62;88.18945;940.0773;;;;
2023/08/24 03:23:27;;;;;;;8.2;6;;;;;;;20.58;88.08887;940.0894;;;;
2023/08/24 03:25:52;;;;;;;9;5.9;;;;;;;20.52;88.62598;940.0991;;;;
2023/08/24 03:28:21;;;;;;;8.9;6;;;;;;;20.69;87.53613;940.1306;;;;
2023/08/24 03:30:46;;;;;;;10.7;6.4;;;;;;;20.66;87.42578;940.0439;;;;
2023/08/24 03:33:12;;;;;;;9.2;6.2;;;;;;;20.8;86.44922;940.007;;;;
2023/08/24 03:35:38;;;;;;;11.4;6.7;;;;;;;20.81;86.53418;939.992;;;;
2023/08/24 03:38:04;;;;;;;8.1;6.2;;;;;;;20.8;86.89355;940.0564;;;;
2023/08/24 03:40:30;;;;;;;10.1;6.2;;;;;;;20.95;85.47363;939.9991;;;;
2023/08/24 03:42:56;;;;;;;8.1;6;;;;;;;20.77;85.97656;940.0239;;;;
2023/08/24 03:45:21;;;;;;;9.9;6;;;;;;;20.61;86.65723;940.0247;;;;
2023/08/24 03:47:46;;;;;;;9.6;6.4;;;;;;;20.29;88.43848;939.9888;;;;
2023/08/24 03:50:16;;;;;;;6.8;5.7;;;;;;;20.26;88.94727;940.0114;;;;
2023/08/24 03:52:41;;;;;;;8.6;6.2;;;;;;;20.43;88.04492;940.0028;;;;
2023/08/24 03:55:12;;;;;;;7.5;6.1;;;;;;;20.47;87.28516;939.8956;;;;
2023/08/24 03:57:39;;;;;;;8;6.2;;;;;;;20.56;86.75195;939.9637;;;;
2023/08/24 04:02:34;;;;;;;10.4;6.2;;;;;;;20.6;85.9082;939.9748;;;;
2023/08/24 04:04:59;;;;;;;9.4;5.8;;;;;;;20.41;86.54688;939.9302;;;;
2023/08/24 04:07:29;;;;;;;7;5.9;;;;;;;20.24;87.53027;939.9723;;;;
2023/08/24 04:09:54;;;;;;;10.9;6.5;;;;;;;20.08;88.29199;939.9694;;;;
2023/08/24 04:12:21;;;;;;;7;6.2;;;;;;;19.94;89.10449;939.9215;;;;
2023/08/24 04:14:46;;;;;;;8.9;6.5;;;;;;;19.76;89.75684;939.9408;;;;
2023/08/24 04:17:13;;;;;;;9.2;6.1;;;;;;;19.63;90.47461;939.9891;;;;
2023/08/24 04:19:38;;;;;;;7.5;5.7;;;;;;;19.6;90.64453;940.0218;;;;
2023/08/24 04:22:03;;;;;;;11.5;5.9;;;;;;;19.61;90.33105;940.0111;;;;
2023/08/24 04:24:28;;;;;;;8.8;6.1;;;;;;;19.49;91.00684;940.0095;;;;
2023/08/24 04:26:54;;;;;;;8.7;6.3;;;;;;;19.49;91.44922;939.9933;;;;
2023/08/24 04:29:19;;;;;;;9.7;6.5;;;;;;;19.4;91.95508;940.0377;;;;
2023/08/24 04:31:47;;;;;;;10.7;6.4;;;;;;;19.56;91.32324;940.0558;;;;
2023/08/24 04:34:12;;;;;;;12;6.6;;;;;;;19.7;90.47852;940.1266;;;;
2023/08/24 04:36:38;;;;;;;10.6;6.4;;;;;;;19.75;90.01074;940.0775;;;;
2023/08/24 04:39:03;;;;;;;9.9;6.6;;;;;;;19.59;91.05078;940.0599;;;;
2023/08/24 04:41:30;;;;;;;9.1;5.8;;;;;;;19.73;90.19434;940.0779;;;;
2023/08/24 04:43:55;;;;;;;11.9;6.2;;;;;;;19.73;89.86621;940.0491;;;;
2023/08/24 04:46:21;;;;;;;10.5;6.2;;;;;;;19.61;89.94629;940.1192;;;;
2023/08/24 04:48:46;;;;;;;8.6;5.9;;;;;;;19.6;89.73535;940.1261;;;;
2023/08/24 04:51:12;;;;;;;8.2;5.9;;;;;;;19.49;90.51758;940.0555;;;;
2023/08/24 04:53:37;;;;;;;8.6;5.9;;;;;;;19.45;90.16992;940.087;;;;
2023/08/24 04:56:04;;;;;;;10.7;6.2;;;;;;;19.49;90.12109;940.032;;;;
2023/08/24 04:58:29;;;;;;;9.6;6.1;;;;;;;19.46;90.47656;940.0956;;;;
2023/08/24 05:00:57;;;;;;;7.7;6;;;;;;;19.63;89.75195;940.0609;;;;
2023/08/24 05:03:22;;;;;;;11.2;6.3;;;;;;;19.78;89.25879;939.9704;;;;
2023/08/24 05:05:50;;;;;;;7.7;5.4;;;;;;;19.86;88.42188;939.9753;;;;
2023/08/24 05:08:15;;;;;;;9.7;6.1;;;;;;;19.98;87.3623;939.9666;;;;
2023/08/24 05:10:43;;;;;;;12.9;5.9;;;;;;;19.82;87.19141;939.9542;;;;
2023/08/24 05:13:08;;;;;;;11.1;5.6;;;;;;;19.82;87.87988;939.9575;;;;
2023/08/24 05:15:36;;;;;;;8.3;5.7;;;;;;;19.95;86.80664;939.9821;;;;
2023/08/24 05:18:07;;;;;;;12.2;6;;;;;;;19.97;86.40332;940.0348;;;;
2023/08/24 05:20:37;;;;;;;9.1;5.8;;;;;;;19.95;87.05176;939.9998;;;;
2023/08/24 05:23:02;;;;;;;8.4;5.6;;;;;;;20.08;86.73047;940.0259;;;;
2023/08/24 05:25:29;;;;;;;7.8;5.7;;;;;;;20.24;86.15332;939.986;;;;
2023/08/24 05:27:54;;;;;;;10.9;6;;;;;;;20.33;85.2832;939.9975;;;;
2023/08/24 05:30:24;;;;;;;8.2;5.8;;;;;;;20.4;84.89844;940.0474;;;;
2023/08/24 05:32:47;;;;;;;9.5;5.6;;;;;;;20.44;84.63867;939.9579;;;;
2023/08/24 05:35:13;;;;;;;8.9;5.9;;;;;;;20.53;84.51563;940.0131;;;;
2023/08/24 05:37:38;;;;;;;8.4;5.4;;;;;;;20.77;84.28125;940.0313;;;;
2023/08/24 05:40:05;;;;;;;9;5.8;;;;;;;21.09;83.16211;940.0447;;;;
2023/08/24 05:42:30;;;;;;;8.7;5.7;;;;;;;21.51;81.49414;940.0158;;;;
2023/08/24 05:44:56;;;;;;;9.1;5.4;;;;;;;21.87;79.19336;939.9695;;;;
2023/08/24 05:47:21;;;;;;;8.7;5.2;;;;;;;22.52;76.66992;940.0178;;;;
2023/08/24 05:49:50;;;;;;;9.6;5.3;;;;;;;22.6;74.60742;939.9807;;;;
2023/08/24 05:52:16;;;;;;;7.3;5.2;;;;;;;22.82;73.58594;940.043;;;;
2023/08/24 05:54:41;;;;;;;8.5;4.7;;;;;;;23.05;72.6377;939.9995;;;;
2023/08/24 05:57:07;;;;;;;7.2;5.1;;;;;;;23.34;71.61523;939.9991;;;;
2023/08/24 05:59:35;;;;;;;7.3;5.2;;;;;;;24;68.55469;940.0245;;;;
2023/08/24 06:02:00;;;;;;;7.4;4.9;;;;;;;24.63;67.51855;939.9568;;;;
2023/08/24 06:04:26;;;;;;;8.4;4.9;;;;;;;24.83;65.74512;939.9586;;;;
2023/08/24 06:06:51;;;;;;;8.3;5.1;;;;;;;25.52;63.54395;939.9012;;;;
2023/08/24 06:09:17;;;;;;;9;4.7;;;;;;;25.89;62.12988;939.9525;;;;
2023/08/24 06:11:42;;;;;;;5.9;4.6;;;;;;;26.04;61.64258;939.9197;;;;
2023/08/24 06:14:10;;;;;;;6.6;4.5;;;;;;;26.47;59.70117;939.8948;;;;
2023/08/24 06:16:35;;;;;;;11;4.9;;;;;;;26.94;57.77246;939.8708;;;;
2023/08/24 06:19:01;;;;;;;7.8;4.7;;;;;;;26.98;55.92773;939.796;;;;
2023/08/24 06:21:26;;;;;;;5.3;4.2;;;;;;;27.38;54.79199;939.8574;;;;
2023/08/24 06:23:53;;;;;;;11.3;4.7;;;;;;;27.44;54.38379;939.7737;;;;
2023/08/24 06:26:18;;;;;;;10.8;4.8;;;;;;;27.12;56.33691;939.6836;;;;
2023/08/24 06:28:45;;;;;;;7.7;4.6;;;;;;;27.33;54.76074;939.7892;;;;
2023/08/24 06:31:10;;;;;;;10.5;4.7;;;;;;;26.97;56.02246;939.7397;;;;
2023/08/24 06:33:37;;;;;;;7.5;4.4;;;;;;;27.57;54.49512;939.7791;;;;
2023/08/24 06:36:02;;;;;;;6.4;4.5;;;;;;;28.04;51.61719;939.815;;;;
2023/08/24 06:38:28;;;;;;;6.7;4.2;;;;;;;28.36;50.52441;939.7679;;;;
2023/08/24 06:40:53;;;;;;;10.2;4.1;;;;;;;28.88;49.47754;939.7996;;;;
2023/08/24 06:43:20;;;;;;;8.3;4.2;;;;;;;29.06;51.4248;939.7772;;;;
2023/08/24 06:45:45;;;;;;;6.8;4;;;;;;;30.15;48.37402;939.8734;;;;
2023/08/24 06:48:12;;;;;;;8.8;3.8;;;;;;;29.64;48.41504;939.8547;;;;
2023/08/24 06:50:37;;;;;;;8.9;3.9;;;;;;;30.76;47.62695;939.842;;;;
2023/08/24 06:53:05;;;;;;;5.9;4.4;;;;;;;31.4;46.52148;939.8108;;;;
2023/08/24 06:55:30;;;;;;;8.5;4.2;;;;;;;30.55;46.29102;939.8467;;;;
2023/08/24 06:57:57;;;;;;;10.1;4.4;;;;;;;30.64;46.01367;939.843;;;;
2023/08/24 07:00:22;;;;;;;9.4;4.4;;;;;;;30.36;45.49512;939.8045;;;;
2023/08/24 07:02:50;;;;;;;7.1;4.1;;;;;;;30.41;46.38379;939.743;;;;
2023/08/24 07:05:18;;;;;;;7.7;4.1;;;;;;;30.21;47.4502;939.7162;;;;
2023/08/24 07:07:43;;;;;;;10.4;4;;;;;;;30.08;47.65039;939.6506;;;;
2023/08/24 07:10:12;;;;;;;6.8;4;;;;;;;29.33;49.63281;939.615;;;;
2023/08/24 07:12:44;;;;;;;8.5;4.2;;;;;;;29.57;50.45801;939.6182;;;;
2023/08/24 07:15:11;;;;;;;7.8;4.2;;;;;;;29.49;50.40137;939.6191;;;;
2023/08/24 07:17:36;;;;;;;11.2;4.5;;;;;;;29.97;49.53613;939.5122;;;;
2023/08/24 07:20:05;;;;;;;10.3;3.9;;;;;;;30.95;48.14844;939.503;;;;
2023/08/24 07:22:29;;;;;;;6.7;4.2;;;;;;;31.62;46.07813;939.4703;;;;
2023/08/24 07:25:04;;;;;;;8.1;4.5;;;;;;;31.64;44.11523;939.4324;;;;
2023/08/24 07:27:28;;;;;;;8.4;4;;;;;;;30.75;45.96387;939.3904;;;;
2023/08/24 07:29:54;;;;;;;8.5;4.1;;;;;;;30.89;45.57227;939.3516;;;;
2023/08/24 07:32:20;;;;;;;6.6;4.3;;;;;;;31.85;44.1123;939.3024;;;;
2023/08/24 07:34:46;;;;;;;6.9;3.8;;;;;;;32.31;43.83203;939.2488;;;;
2023/08/24 07:37:11;;;;;;;6.9;4.4;;;;;;;32.6;43.25977;939.2495;;;;
2023/08/24 07:39:37;;;;;;;8.4;4.1;;;;;;;32.46;41.54395;939.1647;;;;
2023/08/24 07:42:03;;;;;;;7.5;4.4;;;;;;;31.25;44.51953;939.1448;;;;
2023/08/24 07:44:30;;;;;;;7.3;4.2;;;;;;;30.37;45.25684;939.0492;;;;
2023/08/24 07:46:55;;;;;;;8.6;4.7;;;;;;;31.42;44.29688;939.0412;;;;
2023/08/24 07:49:30;;;;;;;7.9;4;;;;;;;31.9;45.45898;938.9724;;;;
2023/08/24 07:51:56;;;;;;;7.6;3.8;;;;;;;31.93;43.3291;938.957;;;;
2023/08/24 07:54:21;;;;;;;5.9;4.1;;;;;;;32.13;43.7793;938.9724;;;;
2023/08/24 07:56:46;;;;;;;9.2;4.2;;;;;;;32.02;44.4873;938.9972;;;;
2023/08/24 07:59:11;;;;;;;8.1;3.9;;;;;;;32.38;42.13672;939.0211;;;;
2023/08/24 08:01:40;;;;;;;9.5;4.1;;;;;;;31.9;41.57617;938.9342;;;;
2023/08/24 08:04:05;;;;;;;8.7;3.9;;;;;;;31.96;41.62988;938.9568;;;;
2023/08/24 08:06:33;;;;;;;8.2;3.7;;;;;;;32.94;40.20703;938.9667;;;;
2023/08/24 08:09:02;;;;;;;9.9;4;;;;;;;33.86;38.60352;938.9749;;;;
2023/08/24 08:11:27;;;;;;;9.6;4.3;;;;;;;33.38;38.40625;938.9373;;;;
2023/08/24 08:13:54;;;;;;;10.4;3.7;;;;;;;33.05;39.05176;938.9131;;;;
2023/08/24 08:16:19;;;;;;;7;3.9;;;;;;;32.52;39.54492;938.8819;;;;
2023/08/24 08:18:46;;;;;;;13.9;4.2;;;;;;;33.15;40.16504;938.8555;;;;
2023/08/24 08:21:10;;;;;;;9.3;4;;;;;;;33.2;38.24707;938.7881;;;;
2023/08/24 08:23:37;;;;;;;7.1;3.9;;;;;;;33.96;38.08203;938.7289;;;;
2023/08/24 08:26:02;;;;;;;12.6;4.6;;;;;;;34.69;37.74512;938.6978;;;;
2023/08/24 08:28:29;;;;;;;9.1;4.2;;;;;;;35.9;36.55176;938.6602;;;;
2023/08/24 08:30:54;;;;;;;8.8;3.5;;;;;;;36.07;34.77539;938.6344;;;;
2023/08/24 08:33:21;;;;;;;10.5;3.9;;;;;;;36.61;34.05371;938.6895;;;;
2023/08/24 08:35:45;;;;;;;7.7;3.7;;;;;;;35.86;34.96484;938.5909;;;;
2023/08/24 08:38:13;;;;;;;6.4;3.6;;;;;;;35.31;35.55078;938.597;;;;
2023/08/24 08:40:39;;;;;;;9.8;3.5;;;;;;;34.89;34.62598;938.5656;;;;
2023/08/24 08:43:06;;;;;;;9.1;3.7;;;;;;;34.84;35.82813;938.5317;;;;
2023/08/24 08:45:31;;;;;;;8.7;4;;;;;;;34.45;34.96582;938.4914;;;;
2023/08/24 08:47:59;;;;;;;11.3;4.7;;;;;;;34.54;36.31055;938.5267;;;;
2023/08/24 08:50:25;;;;;;;10;5.4;;;;;;;34.58;36.91602;938.5305;;;;
2023/08/24 08:52:52;;;;;;;11.1;4.5;;;;;;;34.57;37.26465;938.4441;;;;
2023/08/24 08:55:17;;;;;;;11.9;3.9;;;;;;;34.72;37.56738;938.4288;;;;
2023/08/24 08:57:43;;;;;;;6.3;3.6;;;;;;;35.03;37.50684;938.3965;;;;
2023/08/24 09:00:09;;;;;;;7.9;4.2;;;;;;;33.91;40.01563;938.412;;;;
2023/08/24 09:02:37;;;;;;;6.7;3.8;;;;;;;34.93;37.74023;938.4269;;;;
2023/08/24 09:05:03;;;;;;;8.7;3.6;;;;;;;34.24;39.31055;938.3606;;;;
2023/08/24 09:07:29;;;;;;;8.7;4.3;;;;;;;34.46;36.31543;938.2893;;;;
2023/08/24 09:09:54;;;;;;;9.2;3.6;;;;;;;34.35;37.83691;938.3389;;;;
2023/08/24 09:12:23;;;;;;;8.3;3.9;;;;;;;34.38;36.3457;938.302;;;;
2023/08/24 09:14:48;;;;;;;8.4;4;;;;;;;34.23;38.32129;938.2954;;;;
2023/08/24 09:17:17;;;;;;;6.9;3.8;;;;;;;34.33;37.76367;938.2442;;;;
2023/08/24 09:19:42;;;;;;;8.1;3.9;;;;;;;34.06;38.42773;938.2382;;;;
2023/08/24 09:22:09;;;;;;;7.7;3.6;;;;;;;33.7;38.04883;938.1337;;;;
2023/08/24 09:24:34;;;;;;;13.8;4.4;;;;;;;33.96;40.8623;938.1406;;;;
2023/08/24 09:27:03;;;;;;;5.6;3.7;;;;;;;33.82;40.44043;938.0769;;;;
2023/08/24 09:29:28;;;;;;;9.7;4.1;;;;;;;33.86;38.0625;938.0616;;;;
2023/08/24 09:31:56;;;;;;;7.6;3.8;;;;;;;33.75;39.94043;938.0153;;;;
2023/08/24 09:34:21;;;;;;;11.6;3.9;;;;;;;34.15;40.01172;938.0223;;;;
2023/08/24 09:36:48;;;;;;;8.4;4.4;;;;;;;34.28;38.84277;937.9888;;;;
2023/08/24 09:39:13;;;;;;;12.9;4.4;;;;;;;34.11;39.1543;937.9579;;;;
2023/08/24 09:41:39;;;;;;;8.8;3.6;;;;;;;33.97;38.91309;937.9308;;;;
2023/08/24 09:44:07;;;;;;;9.2;4;;;;;;;33.66;39.15137;937.8931;;;;
2023/08/24 09:46:32;;;;;;;11.6;3.8;;;;;;;33.78;38.88477;937.8895;;;;
2023/08/24 09:49:00;;;;;;;14.5;4.7;;;;;;;33.84;40.71875;937.8511;;;;
2023/08/24 09:51:23;;;;;;;9.8;3.6;;;;;;;33.81;40.74121;937.8325;;;;
2023/08/24 09:53:50;;;;;;;9;3.7;;;;;;;33.83;42.24609;937.8451;;;;
2023/08/24 09:56:15;;;;;;;8.8;4;;;;;;;33.55;43.12207;937.8336;;;;
2023/08/24 09:58:41;;;;;;;9.9;4;;;;;;;33.46;42.54883;937.7938;;;;
2023/08/24 10:01:07;;;;;;;9.8;4.3;;;;;;;32.65;46.33691;937.7703;;;;
2023/08/24 10:03:32;;;;;;;7.7;4.2;;;;;;;32.79;46.7002;937.7431;;;;
2023/08/24 10:06:01;;;;;;;11.3;4;;;;;;;33.03;44.64648;937.7083;;;;
2023/08/24 10:08:26;;;;;;;14.4;4.8;;;;;;;32.66;47.20215;937.731;;;;
2023/08/24 10:10:51;;;;;;;13.5;4.6;;;;;;;32.72;48.22949;937.6547;;;;
2023/08/24 10:13:16;;;;;;;15.8;4.5;;;;;;;32.51;46.7793;937.6563;;;;
2023/08/24 10:15:46;;;;;;;8.6;3.8;;;;;;;32.18;46.98438;937.606;;;;
2023/08/24 10:18:07;;;;;;;12.4;4.5;;;;;;;32.2;48.1748;937.6122;;;;
2023/08/24 10:20:36;;;;;;;8.3;3.9;;;;;;;32.04;51.58398;937.6116;;;;
2023/08/24 10:23:01;;;;;;;10.2;4.3;;;;;;;31.47;51.12598;937.6097;;;;
2023/08/24 10:25:28;;;;;;;10;4.5;;;;;;;31.7;50.27637;937.5724;;;;
2023/08/24 10:27:54;;;;;;;8.7;4.6;;;;;;;31.94;47.94336;937.4942;;;;
2023/08/24 10:30:20;;;;;;;8.2;4.1;;;;;;;31.8;51.09082;937.5217;;;;
2023/08/24 10:32:48;;;;;;;11.4;3.9;;;;;;;31.92;46.61035;937.4885;;;;
2023/08/24 10:35:11;;;;;;;9.7;3.7;;;;;;;32.38;44.84668;937.5162;;;;
2023/08/24 10:37:40;;;;;;;8.1;3.5;;;;;;;32.78;44.25;937.469;;;;
2023/08/24 10:40:06;;;;;;;10.1;3.5;;;;;;;33.32;42.69141;937.449;;;;
2023/08/24 10:42:31;;;;;;;12.6;4.3;;;;;;;34.11;40.23828;937.4808;;;;
2023/08/24 10:44:56;;;;;;;10.5;3.5;;;;;;;34.83;40.34961;937.4802;;;;
2023/08/24 10:47:22;;;;;;;9.9;3.8;;;;;;;35.21;38.41602;937.4432;;;;
2023/08/24 10:49:46;;;;;;;11.8;3.8;;;;;;;35.26;38.33594;937.4229;;;;
2023/08/24 10:52:13;;;;;;;10.9;3.9;;;;;;;34.85;38.26367;937.3438;;;;
2023/08/24 10:54:38;;;;;;;9;4.3;;;;;;;34.9;40.9707;937.3398;;;;
2023/08/24 10:57:03;;;;;;;13.1;3.8;;;;;;;35.39;40.00098;937.2634;;;;
2023/08/24 10:59:28;;;;;;;9.7;3.7;;;;;;;34.96;37.61035;937.2997;;;;
2023/08/24 11:01:53;;;;;;;10.2;3.5;;;;;;;34.66;37.73047;937.2416;;;;
2023/08/24 11:04:21;;;;;;;13;3.8;;;;;;;35.67;37.65723;937.195;;;;
2023/08/24 11:06:46;;;;;;;8.7;3;;;;;;;36.85;36.19141;937.1485;;;;
2023/08/24 11:09:15;;;;;;;8.4;4;;;;;;;37.85;34.50977;937.1301;;;;
2023/08/24 11:11:37;;;;;;;8.3;3.6;;;;;;;37.54;34.48633;937.0564;;;;
2023/08/24 11:14:05;;;;;;;6.6;3.8;;;;;;;38.19;34.30566;937.0421;;;;
2023/08/24 11:16:30;;;;;;;8.3;3.3;;;;;;;38.71;31.36426;937.0511;;;;
2023/08/24 11:18:57;;;;;;;7.4;3.6;;;;;;;37.93;34.22461;937.0139;;;;
2023/08/24 11:21:23;;;;;;;7.6;3.9;;;;;;;37.92;33.39844;936.8879;;;;
2023/08/24 11:23:50;;;;;;;6.9;4;;;;;;;38.38;34.45215;936.894;;;;
2023/08/24 11:26:15;;;;;;;12.2;4.2;;;;;;;38.45;33.81445;936.8499;;;;
2023/08/24 11:28:40;;;;;;;11.7;4.1;;;;;;;38.05;32.65527;936.7873;;;;
2023/08/24 11:31:06;;;;;;;10.2;4.4;;;;;;;36.89;36.1582;936.7659;;;;
2023/08/24 11:33:32;;;;;;;8.9;3.8;;;;;;;36.69;35.25879;936.6909;;;;
2023/08/24 11:35:57;;;;;;;9.9;3.6;;;;;;;37.34;36.09668;936.663;;;;
2023/08/24 11:38:25;;;;;;;12.4;4.2;;;;;;;37.88;36.23633;936.6814;;;;
2023/08/24 11:40:50;;;;;;;10.8;3.6;;;;;;;37.56;36.07813;936.5717;;;;
2023/08/24 11:43:15;;;;;;;8.7;4.1;;;;;;;37.51;36.31641;936.553;;;;
2023/08/24 11:45:42;;;;;;;6.9;3.9;;;;;;;37.37;34.63184;936.4688;;;;
2023/08/24 11:48:06;;;;;;;12.4;3.9;;;;;;;37.56;35.02246;936.4705;;;;
2023/08/24 11:50:36;;;;;;;9;4.1;;;;;;;37.35;36.83691;936.4919;;;;
2023/08/24 11:53:01;;;;;;;10.3;4.2;;;;;;;36.28;39.23145;936.4709;;;;
2023/08/24 11:55:27;;;;;;;14.2;4.2;;;;;;;35.57;39.01367;936.4562;;;;
2023/08/24 11:57:52;;;;;;;10.3;3.9;;;;;;;35.84;38.43164;936.3948;;;;
2023/08/24 12:00:17;;;;;;;6.8;3.9;;;;;;;34.84;43.11133;936.3665;;;;
2023/08/24 12:02:46;;;;;;;9;4.1;;;;;;;34.45;44.34082;936.3979;;;;
2023/08/24 12:05:12;;;;;;;8.4;4;;;;;;;34.17;44.46973;936.3695;;;;
2023/08/24 12:07:39;;;;;;;9;3.9;;;;;;;34.56;41.7832;936.4073;;;;
2023/08/24 12:10:05;;;;;;;9.9;3.5;;;;;;;34.62;41.45117;936.4384;;;;
2023/08/24 12:12:31;;;;;;;11;4.1;;;;;;;34.86;41.53418;936.3592;;;;
2023/08/24 12:14:57;;;;;;;10.8;4.4;;;;;;;34.44;39.96484;936.3616;;;;
2023/08/24 12:17:22;;;;;;;7.3;3.9;;;;;;;34.27;41.26367;936.3813;;;;
2023/08/24 12:19:47;;;;;;;9.6;4.1;;;;;;;34.16;46.58789;936.3421;;;;
2023/08/24 12:22:14;;;;;;;10.3;4.1;;;;;;;34.04;46.25098;936.29;;;;
2023/08/24 12:24:39;;;;;;;5.9;3.6;;;;;;;34.18;44.43457;936.2414;;;;
2023/08/24 12:27:06;;;;;;;11.2;4.7;;;;;;;33.96;46.67676;936.2063;;;;
2023/08/24 12:29:31;;;;;;;9.7;3.8;;;;;;;33.88;44.21289;936.1687;;;;
2023/08/24 12:31:58;;;;;;;8.9;4.7;;;;;;;34.05;44.27734;936.2129;;;;
2023/08/24 12:34:23;;;;;;;15.5;3.9;;;;;;;34.43;44.16895;936.1579;;;;
2023/08/24 12:36:51;;;;;;;10.1;4.5;;;;;;;34.59;45.10059;936.092;;;;
2023/08/24 12:39:16;;;;;;;9.7;3.7;;;;;;;34.71;43.58105;936.0948;;;;
2023/08/24 12:41:44;;;;;;;8.6;3.8;;;;;;;34.96;38.98535;935.9694;;;;
2023/08/24 12:44:09;;;;;;;11.5;4.1;;;;;;;35.18;39.67969;936.0183;;;;
2023/08/24 12:46:35;;;;;;;10.4;4.5;;;;;;;35.29;39.43555;935.9648;;;;
2023/08/24 12:49:00;;;;;;;8.4;3.7;;;;;;;35.42;38.89258;935.9325;;;;
2023/08/24 12:51:28;;;;;;;14.4;4.4;;;;;;;35.6;37.77246;935.9299;;;;
2023/08/24 12:53:53;;;;;;;13.6;3.8;;;;;;;35.5;39.83984;935.9088;;;;
2023/08/24 12:56:20;;;;;;;9.6;4.3;;;;;;;35.22;41.62598;935.8739;;;;
2023/08/24 12:58:46;;;;;;;13.6;3.8;;;;;;;34.95;42.13281;935.856;;;;
2023/08/24 13:01:14;;;;;;;9.9;3.8;;;;;;;34.7;41.25391;935.7619;;;;
2023/08/24 13:03:39;;;;;;;7.6;3.3;;;;;;;34.43;40.30176;935.7346;;;;
2023/08/24 13:06:06;;;;;;;9.9;4.1;;;;;;;34.06;43.67578;935.844;;;;
2023/08/24 13:08:31;;;;;;;8.3;3.6;;;;;;;34.06;41.91797;935.8738;;;;
2023/08/24 13:11:01;;;;;;;15.3;4;;;;;;;34.18;42.31543;935.7933;;;;
2023/08/24 13:13:27;;;;;;;13.8;4.4;;;;;;;34.32;44.18262;935.7936;;;;
2023/08/24 13:15:52;;;;;;;9.6;4.4;;;;;;;34.21;44.38867;935.7883;;;;
2023/08/24 13:18:21;;;;;;;9.4;3.8;;;;;;;34.43;43.31348;935.7748;;;;
2023/08/24 13:20:46;;;;;;;8.8;4.2;;;;;;;34.48;43.18652;935.7755;;;;
2023/08/24 13:23:13;;;;;;;8.4;4.3;;;;;;;34.57;42.48438;935.6814;;;;
2023/08/24 13:25:38;;;;;;;14.4;4.6;;;;;;;34.69;46.23242;935.5936;;;;
2023/08/24 13:28:06;;;;;;;7.6;3.8;;;;;;;34.43;47.08496;935.5916;;;;
2023/08/24 13:30:31;;;;;;;9.3;4.2;;;;;;;34.45;45.31641;935.5864;;;;
2023/08/24 13:32:59;;;;;;;10.1;3.7;;;;;;;34;44.75293;935.6116;;;;
2023/08/24 13:35:24;;;;;;;14.6;4.1;;;;;;;33.97;45.88184;935.5861;;;;
2023/08/24 13:37:51;;;;;;;12.4;3.9;;;;;;;33.96;46.18164;935.5737;;;;
2023/08/24 13:40:17;;;;;;;11.2;3.9;;;;;;;34;45.66895;935.5847;;;;
2023/08/24 13:42:45;;;;;;;11;3.9;;;;;;;34.11;45.61914;935.5513;;;;
2023/08/24 13:45:10;;;;;;;8.6;4.6;;;;;;;34.06;44.98926;935.465;;;;
2023/08/24 13:47:39;;;;;;;10.3;4.7;;;;;;;34.16;44.6123;935.3641;;;;
2023/08/24 13:50:04;;;;;;;14.1;4.3;;;;;;;34.28;44.14355;935.3569;;;;
2023/08/24 13:52:34;;;;;;;10.8;4.6;;;;;;;34.12;43.70605;935.2888;;;;
2023/08/24 13:54:58;;;;;;;10.7;3.7;;;;;;;34.15;42.57813;935.3;;;;
2023/08/24 13:57:25;;;;;;;15.5;3.7;;;;;;;33.88;41.80664;935.2845;;;;
2023/08/24 13:59:51;;;;;;;7.5;3.8;;;;;;;33.94;42.52148;935.283;;;;
2023/08/24 14:02:19;;;;;;;10.2;3.5;;;;;;;34.01;40.69824;935.2107;;;;
2023/08/24 14:04:44;;;;;;;13;4.4;;;;;;;34.21;41.41504;935.2068;;;;
2023/08/24 14:07:12;;;;;;;12.3;3.7;;;;;;;34.32;40.91895;935.2816;;;;
2023/08/24 14:09:37;;;;;;;14;3.8;;;;;;;34.45;40.81055;935.2374;;;;
2023/08/24 14:12:05;;;;;;;13.1;4.2;;;;;;;34.44;43.29102;935.2881;;;;
2023/08/24 14:14:30;;;;;;;13;4.4;;;;;;;34.05;44.31348;935.2587;;;;
2023/08/24 14:16:58;;;;;;;11.1;3.9;;;;;;;33.97;44.84668;935.2456;;;;